Time;durP1;ratioP1;P1;durP2;ratioP2;P2;SDS_P1;SDS_P2;PMS_P1;PMS_P2;Temp;Humidity;BMP_temperature;BMP_pressure;BME280_temperature;BME280_humidity;BME280_pressure;Samples;Min_cycle;Max_cycle;Signal;HPM_P1;HPM_P2
2021/11/01 00:02:04;;;;;;;5.53;1.55;;;;;;;;;;5044506;28;20100;-84
2021/11/01 00:04:30;;;;;;;0.10;0.10;;;;;;;;;;5043925;28;20033;-84
2021/11/01 00:06:56;;;;;;;0.10;0.10;;;;;;;;;;5042609;28;20179;-83
2021/11/01 00:09:23;;;;;;;0.10;0.10;;;;;;;;;;5043581;28;20295;-84
2021/11/01 00:11:49;;;;;;;0.10;0.10;;;;;;;;;;5043503;28;20041;-83
2021/11/01 00:14:15;;;;;;;0.52;0.32;;;;;;;;;;5059006;28;20692;-84
2021/11/01 00:16:41;;;;;;;0.10;0.10;;;;;;;;;;5045559;28;20090;-87
2021/11/01 00:19:07;;;;;;;0.10;0.10;;;;;;;;;;5046869;28;21104;-90
2021/11/01 00:21:35;;;;;;;0.17;0.17;;;;;;;;;;5047519;28;20526;-87
2021/11/01 00:24:01;;;;;;;0.10;0.10;;;;;;;;;;5045065;28;20104;-86
2021/11/01 00:26:27;;;;;;;1.20;0.73;;;;;;;;;;5044931;28;20928;-86
2021/11/01 00:28:53;;;;;;;0.00;0.00;;;;;;;;;;5061806;28;20029;-88
2021/11/01 00:31:20;;;;;;;0.55;0.55;;;;;;;;;;5061107;28;20094;-86
2021/11/01 00:33:46;;;;;;;0.10;0.10;;;;;;;;;;5043329;28;20124;-86
2021/11/01 00:36:12;;;;;;;0.00;0.00;;;;;;;;;;5043360;28;20036;-86
2021/11/01 00:38:38;;;;;;;0.30;0.30;;;;;;;;;;5043996;28;20398;-86
2021/11/01 00:41:04;;;;;;;0.03;0.03;;;;;;;;;;5043209;28;20025;-86
2021/11/01 00:43:30;;;;;;;0.10;0.10;;;;;;;;;;5040956;28;20128;-87
2021/11/01 00:45:56;;;;;;;3.67;0.47;;;;;;;;;;5042549;28;20308;-87
2021/11/01 00:48:22;;;;;;;0.00;0.00;;;;;;;;;;5044161;28;20040;-88
2021/11/01 00:50:48;;;;;;;0.10;0.10;;;;;;;;;;5043657;28;20031;-86
2021/11/01 00:53:15;;;;;;;0.10;0.10;;;;;;;;;;5041115;28;20155;-86
2021/11/01 00:55:52;;;;;;;0.10;0.10;;;;;;;;;;5045156;28;20432;-85
2021/11/01 00:58:19;;;;;;;0.05;0.05;;;;;;;;;;5044618;28;20047;-85
2021/11/01 01:00:45;;;;;;;0.10;0.10;;;;;;;;;;5043545;28;20084;-84
2021/11/01 01:03:12;;;;;;;0.00;0.00;;;;;;;;;;5042382;28;20040;-85
2021/11/01 01:05:39;;;;;;;0.10;0.10;;;;;;;;;;5043370;28;20044;-86
2021/11/01 01:08:05;;;;;;;0.00;0.00;;;;;;;;;;5049090;28;20056;-89
2021/11/01 01:10:31;;;;;;;0.00;0.00;;;;;;;;;;5082257;28;20040;-85
2021/11/01 01:12:57;;;;;;;0.20;0.20;;;;;;;;;;5061018;28;20128;-85
2021/11/01 01:15:26;;;;;;;0.17;0.17;;;;;;;;;;5042396;28;20275;-84
2021/11/01 01:17:59;;;;;;;0.00;0.00;;;;;;;;;;5043590;28;20029;-87
2021/11/01 01:20:25;;;;;;;0.20;0.20;;;;;;;;;;5044225;28;20151;-89
2021/11/01 01:22:51;;;;;;;0.10;0.10;;;;;;;;;;5044434;28;20075;-86
2021/11/01 01:26:05;;;;;;;0.07;0.07;;;;;;;;;;5043611;28;20412;-85
2021/11/01 01:28:06;;;;;;;0.10;0.10;;;;;;;;;;5039763;28;20112;-86
2021/11/01 01:30:32;;;;;;;0.10;0.10;;;;;;;;;;5037494;28;20029;-84
2021/11/01 01:32:59;;;;;;;0.27;0.27;;;;;;;;;;5041329;28;20679;-85
2021/11/01 01:35:25;;;;;;;0.00;0.00;;;;;;;;;;5042715;28;20686;-90
2021/11/01 01:37:53;;;;;;;0.10;0.10;;;;;;;;;;5045333;28;20136;-86
2021/11/01 01:40:19;;;;;;;0.55;0.47;;;;;;;;;;5043473;28;20063;-86
2021/11/01 01:42:45;;;;;;;0.00;0.00;;;;;;;;;;5042849;28;20033;-86
2021/11/01 01:45:12;;;;;;;0.00;0.00;;;;;;;;;;5041983;28;20665;-85
2021/11/01 01:47:41;;;;;;;0.10;0.10;;;;;;;;;;5041495;28;20052;-86
2021/11/01 01:50:08;;;;;;;0.10;0.10;;;;;;;;;;5041311;28;20064;-86
2021/11/01 01:52:34;;;;;;;0.43;0.43;;;;;;;;;;5042404;28;20036;-85
2021/11/01 01:55:00;;;;;;;0.00;0.00;;;;;;;;;;5024398;28;20037;-87
2021/11/01 01:57:26;;;;;;;0.43;0.30;;;;;;;;;;5043308;28;20021;-89
2021/11/01 01:59:53;;;;;;;9.25;1.80;;;;;;;;;;5041607;28;20044;-89
2021/11/01 02:02:20;;;;;;;0.10;0.10;;;;;;;;;;5041989;28;20090;-89
2021/11/01 02:04:46;;;;;;;0.90;0.85;;;;;;;;;;5045164;28;20025;-89
2021/11/01 02:07:25;;;;;;;0.20;0.20;;;;;;;;;;5045159;28;20044;-89
2021/11/01 02:09:56;;;;;;;0.00;0.00;;;;;;;;;;5040921;28;20017;-90
2021/11/01 02:12:32;;;;;;;0.00;0.00;;;;;;;;;;5043786;28;20071;-89
2021/11/01 02:15:00;;;;;;;0.00;0.00;;;;;;;;;;5033999;28;20043;-90
2021/11/01 02:17:28;;;;;;;6.45;0.47;;;;;;;;;;5045652;28;20029;-90
2021/11/01 02:19:56;;;;;;;0.10;0.10;;;;;;;;;;5045369;28;20139;-90
2021/11/01 02:22:25;;;;;;;0.20;0.20;;;;;;;;;;5041084;28;20040;-88
2021/11/01 02:25:02;;;;;;;0.10;0.10;;;;;;;;;;5037471;28;20026;-91
2021/11/01 02:27:30;;;;;;;4.75;1.45;;;;;;;;;;5035525;28;20032;-88
2021/11/01 02:29:56;;;;;;;0.10;0.10;;;;;;;;;;5047424;28;20021;-89
2021/11/01 02:32:22;;;;;;;0.22;0.22;;;;;;;;;;5042217;28;20047;-89
2021/11/01 02:34:49;;;;;;;0.00;0.00;;;;;;;;;;5041265;28;20119;-85
2021/11/01 02:37:15;;;;;;;0.10;0.10;;;;;;;;;;5042838;28;20021;-87
2021/11/01 02:39:52;;;;;;;0.10;0.10;;;;;;;;;;5042148;28;20041;-86
2021/11/01 02:42:17;;;;;;;;;;;;;;;;;;5042206;28;20281;-88
2021/11/01 02:45:01;;;;;;;0.00;0.00;;;;;;;;;;5040003;28;19908;-86
2021/11/01 02:47:27;;;;;;;0.10;0.10;;;;;;;;;;5044103;28;20099;-86
2021/11/01 02:49:54;;;;;;;0.00;0.00;;;;;;;;;;5040821;28;20443;-86
2021/11/01 02:52:21;;;;;;;0.10;0.10;;;;;;;;;;5042678;28;20068;-86
2021/11/01 02:54:48;;;;;;;0.28;0.28;;;;;;;;;;5040648;28;20470;-86
2021/11/01 02:57:14;;;;;;;0.10;0.10;;;;;;;;;;5044181;28;20021;-89
2021/11/01 02:59:40;;;;;;;0.17;0.17;;;;;;;;;;5042978;28;20579;-89
2021/11/01 03:02:07;;;;;;;0.10;0.10;;;;;;;;;;5046655;28;20524;-88
2021/11/01 03:04:33;;;;;;;0.00;0.00;;;;;;;;;;5044081;28;20074;-87
2021/11/01 03:06:59;;;;;;;0.10;0.10;;;;;;;;;;5041598;28;20535;-87
2021/11/01 03:09:28;;;;;;;0.10;0.10;;;;;;;;;;5043162;28;20029;-87
2021/11/01 03:11:55;;;;;;;0.13;0.13;;;;;;;;;;5042429;28;20102;-88
2021/11/01 03:14:23;;;;;;;0.00;0.00;;;;;;;;;;5041402;28;20037;-87
2021/11/01 03:16:50;;;;;;;0.10;0.10;;;;;;;;;;5059800;28;20033;-87
2021/11/01 03:19:22;;;;;;;0.10;0.10;;;;;;;;;;5059894;28;20051;-89
2021/11/01 03:21:48;;;;;;;0.10;0.10;;;;;;;;;;5028893;28;20098;-87
2021/11/01 03:24:16;;;;;;;0.10;0.10;;;;;;;;;;5045259;28;20454;-87
2021/11/01 03:26:43;;;;;;;0.10;0.10;;;;;;;;;;5047525;28;20472;-87
2021/11/01 03:29:10;;;;;;;0.10;0.10;;;;;;;;;;5046708;28;20185;-87
2021/11/01 03:31:37;;;;;;;0.50;0.50;;;;;;;;;;5049233;28;20048;-88
2021/11/01 03:34:04;;;;;;;0.10;0.10;;;;;;;;;;5041936;28;20122;-88
2021/11/01 03:36:31;;;;;;;0.10;0.10;;;;;;;;;;5045157;28;20114;-87
2021/11/01 03:38:57;;;;;;;0.00;0.00;;;;;;;;;;5046142;28;20036;-90
2021/11/01 03:41:26;;;;;;;0.10;0.10;;;;;;;;;;5046494;28;20463;-81
2021/11/01 03:44:01;;;;;;;0.10;0.10;;;;;;;;;;5047022;28;20030;-89
2021/11/01 03:46:38;;;;;;;0.10;0.10;;;;;;;;;;5044838;28;20049;-91
2021/11/01 03:49:05;;;;;;;0.10;0.10;;;;;;;;;;5065474;28;20766;-85
2021/11/01 03:54:05;;;;;;;0.80;0.80;;;;;;;;;;5045391;28;20506;-86
2021/11/01 03:56:31;;;;;;;0.10;0.10;;;;;;;;;;5044920;28;20411;-83
2021/11/01 03:58:57;;;;;;;0.20;0.20;;;;;;;;;;5047302;28;20033;-88
2021/11/01 04:01:23;;;;;;;0.08;0.08;;;;;;;;;;5046000;28;20033;-86
2021/11/01 04:03:49;;;;;;;0.30;0.30;;;;;;;;;;5042425;28;20036;-86
2021/11/01 04:06:19;;;;;;;1.40;1.30;;;;;;;;;;5044526;28;20484;-84
2021/11/01 04:08:45;;;;;;;5.47;0.90;;;;;;;;;;5044158;28;20530;-86
2021/11/01 04:11:16;;;;;;;5.38;2.10;;;;;;;;;;5046269;28;20562;-88
2021/11/01 04:13:43;;;;;;;0.08;0.08;;;;;;;;;;5046281;28;20404;-84
2021/11/01 04:16:14;;;;;;;1.08;0.85;;;;;;;;;;5043532;28;20447;-90
2021/11/01 04:19:02;;;;;;;0.10;0.10;;;;;;;;;;5047842;28;20037;-91
2021/11/01 04:21:28;;;;;;;0.10;0.10;;;;;;;;;;5048637;28;20024;-94
2021/11/01 04:23:56;;;;;;;0.17;0.17;;;;;;;;;;5052304;28;20029;-94
2021/11/01 04:26:23;;;;;;;0.20;0.20;;;;;;;;;;5047531;28;20037;-87
2021/11/01 04:28:49;;;;;;;0.00;0.00;;;;;;;;;;5045208;28;20131;-87
2021/11/01 04:31:22;;;;;;;0.00;0.00;;;;;;;;;;5046241;28;20111;-86
2021/11/01 04:33:49;;;;;;;0.10;0.10;;;;;;;;;;5043867;28;20306;-87
2021/11/01 04:36:16;;;;;;;0.10;0.10;;;;;;;;;;5044903;28;20108;-88
2021/11/01 04:54:23;;;;;;;0.30;0.30;;;;;;;;;;5043926;28;20090;-87
2021/11/01 04:56:50;;;;;;;1.67;0.80;;;;;;;;;;5044503;28;20033;-89
2021/11/01 04:59:16;;;;;;;0.63;0.63;;;;;;;;;;5045102;28;20055;-89
2021/11/01 05:01:49;;;;;;;0.55;0.40;;;;;;;;;;5046643;28;20036;-89
2021/11/01 05:04:20;;;;;;;0.17;0.17;;;;;;;;;;5043205;28;20063;-85
2021/11/01 05:06:51;;;;;;;0.10;0.10;;;;;;;;;;5042773;28;20086;-87
2021/11/01 05:09:29;;;;;;;0.03;0.03;;;;;;;;;;5044553;28;20067;-86
2021/11/01 05:12:03;;;;;;;0.10;0.10;;;;;;;;;;5043614;28;20097;-84
2021/11/01 05:14:34;;;;;;;0.75;0.75;;;;;;;;;;5042990;28;20041;-84
2021/11/01 05:20:04;;;;;;;1.00;0.57;;;;;;;;;;5045128;28;20040;-84
2021/11/01 05:22:35;;;;;;;;;;;;;;;;;;;;;
2021/11/01 05:25:01;;;;;;;0.30;0.23;;;;;;;;;;5044648;28;20792;-88
2021/11/01 05:27:41;;;;;;;0.55;0.47;;;;;;;;;;5059059;28;20063;-88
2021/11/01 05:30:12;;;;;;;0.28;0.28;;;;;;;;;;5044678;28;20042;-90
2021/11/01 05:32:41;;;;;;;0.10;0.10;;;;;;;;;;5043355;28;20037;-88
2021/11/01 05:35:07;;;;;;;0.10;0.10;;;;;;;;;;5042490;28;20116;-86
2021/11/01 05:37:34;;;;;;;0.75;0.45;;;;;;;;;;5045854;28;20074;-87
2021/11/01 05:40:00;;;;;;;0.80;0.80;;;;;;;;;;5047358;28;20047;-93
2021/11/01 05:42:26;;;;;;;0.00;0.00;;;;;;;;;;5064882;28;20508;-92
2021/11/01 05:44:52;;;;;;;0.10;0.10;;;;;;;;;;5042340;28;20144;-92
2021/11/01 05:47:18;;;;;;;0.10;0.10;;;;;;;;;;5040852;28;21090;-91
2021/11/01 05:49:44;;;;;;;0.10;0.10;;;;;;;;;;5049065;28;20825;-90
2021/11/01 05:52:18;;;;;;;0.07;0.07;;;;;;;;;;5043747;28;20025;-89
2021/11/01 05:54:45;;;;;;;0.35;0.35;;;;;;;;;;5042748;28;20291;-85
2021/11/01 06:02:32;;;;;;;0.10;0.10;;;;;;;;;;5041648;28;20082;-86
2021/11/01 06:10:51;;;;;;;2.50;1.05;;;;;;;;;;5067517;28;20789;-88
2021/11/01 06:15:33;;;;;;;0.13;0.13;;;;;;;;;;5064832;28;20044;-91
2021/11/01 06:17:59;;;;;;;2.23;1.70;;;;;;;;;;5058727;28;20033;-89
2021/11/01 06:20:25;;;;;;;0.30;0.30;;;;;;;;;;5047263;28;20029;-93
2021/11/01 06:22:53;;;;;;;0.45;0.45;;;;;;;;;;5048396;28;20043;-89
2021/11/01 06:25:19;;;;;;;1.17;1.08;;;;;;;;;;5065925;28;20028;-90
2021/11/01 06:27:47;;;;;;;6.20;0.73;;;;;;;;;;5043179;28;20543;-88
2021/11/01 06:32:58;;;;;;;0.20;0.20;;;;;;;;;;5060994;28;20036;-87
2021/11/01 07:16:06;;;;;;;0.43;0.43;;;;;;;;;;5056332;28;20043;-84
2021/11/01 07:18:41;;;;;;;0.00;0.00;;;;;;;;;;5042399;28;20403;-84
2021/11/01 08:37:38;;;;;;;0.10;0.10;;;;;;;;;;5032854;28;20037;-84
2021/11/01 08:51:24;;;;;;;0.30;0.03;;;;;;;;;;5018864;28;20625;-82
2021/11/01 09:23:14;;;;;;;0.00;0.00;;;;;;;;;;5056219;28;20093;-82
2021/11/01 09:25:48;;;;;;;0.00;0.00;;;;;;;;;;5063446;28;20115;-82
2021/11/01 09:28:25;;;;;;;0.30;0.30;;;;;;;;;;5045011;28;20035;-83
2021/11/01 09:41:51;;;;;;;0.10;0.10;;;;;;;;;;5062520;28;20119;-82
2021/11/01 09:44:23;;;;;;;1.75;0.65;;;;;;;;;;5062206;28;20029;-82
2021/11/01 09:46:50;;;;;;;3.45;0.57;;;;;;;;;;5060493;28;20028;-82
2021/11/01 09:49:16;;;;;;;0.10;0.10;;;;;;;;;;5060656;28;20078;-82
2021/11/01 09:51:44;;;;;;;0.10;0.10;;;;;;;;;;5062411;28;20506;-83
2021/11/01 09:54:20;;;;;;;0.00;0.00;;;;;;;;;;5045714;28;20052;-83
2021/11/01 09:59:11;;;;;;;0.00;0.00;;;;;;;;;;5062764;28;20024;-83
2021/11/01 09:59:42;;;;;;;0.90;0.20;;;;;;;;;;5038760;28;20041;-82
2021/11/01 10:02:09;;;;;;;0.32;0.15;;;;;;;;;;5062436;28;20028;-82
2021/11/01 10:04:37;;;;;;;0.10;0.10;;;;;;;;;;5063202;28;20035;-83
2021/11/01 10:09:47;;;;;;;0.30;0.30;;;;;;;;;;5062436;28;20079;-82
2021/11/01 10:12:26;;;;;;;0.40;0.22;;;;;;;;;;5062432;28;20028;-83
2021/11/01 10:14:53;;;;;;;21.08;0.95;;;;;;;;;;5062259;28;20032;-83
2021/11/01 10:17:35;;;;;;;0.28;0.17;;;;;;;;;;5044014;28;20029;-82
2021/11/01 10:20:02;;;;;;;0.00;0.00;;;;;;;;;;5042552;28;20395;-82
2021/11/01 10:22:28;;;;;;;;;;;;;;;;;;5064199;28;20021;-82
2021/11/01 10:24:55;;;;;;;0.10;0.10;;;;;;;;;;5045676;28;19919;-82
2021/11/01 10:27:41;;;;;;;0.00;0.00;;;;;;;;;;5047514;28;20044;-82
2021/11/01 10:30:15;;;;;;;0.20;0.20;;;;;;;;;;5065620;28;20025;-82
2021/11/01 10:32:46;;;;;;;0.90;0.73;;;;;;;;;;5066130;28;20427;-82
2021/11/01 10:35:24;;;;;;;0.30;0.30;;;;;;;;;;5065660;28;20060;-82
2021/11/01 10:38:30;;;;;;;0.28;0.28;;;;;;;;;;5068466;28;20114;-82
2021/11/01 11:13:25;;;;;;;0.00;0.00;;;;;;;;;;5064725;28;20145;-82
2021/11/01 11:15:55;;;;;;;0.10;0.10;;;;;;;;;;5062996;28;20082;-82
2021/11/01 11:39:48;;;;;;;0.93;0.32;;;;;;;;;;5064324;28;20458;-82
2021/11/01 11:48:23;;;;;;;0.10;0.10;;;;;;;;;;5064863;28;20094;-82
2021/11/01 11:50:42;;;;;;;0.28;0.28;;;;;;;;;;5049202;28;20136;-81
2021/11/01 11:53:23;;;;;;;1.77;0.85;;;;;;;;;;5064445;28;20021;-82
2021/11/01 11:56:09;;;;;;;0.00;0.00;;;;;;;;;;5048658;28;20516;-82
2021/11/01 11:58:36;;;;;;;0.43;0.43;;;;;;;;;;5064598;28;20032;-82
2021/11/01 12:01:19;;;;;;;0.20;0.20;;;;;;;;;;5064088;28;20067;-82
2021/11/01 12:03:45;;;;;;;0.45;0.45;;;;;;;;;;5064134;28;20121;-82
2021/11/01 12:06:14;;;;;;;0.20;0.20;;;;;;;;;;5063779;28;20610;-82
2021/11/01 12:08:44;;;;;;;0.10;0.10;;;;;;;;;;5046206;28;20036;-82
2021/11/01 12:19:09;;;;;;;0.00;0.00;;;;;;;;;;5063754;28;20036;-82
2021/11/01 12:21:36;;;;;;;0.55;0.55;;;;;;;;;;5063619;28;20016;-82
2021/11/01 12:24:06;;;;;;;0.00;0.00;;;;;;;;;;5047034;28;20032;-82
2021/11/01 12:26:32;;;;;;;0.00;0.00;;;;;;;;;;5045119;28;20025;-81
2021/11/01 12:28:59;;;;;;;0.00;0.00;;;;;;;;;;5065353;28;20355;-82
2021/11/01 12:31:27;;;;;;;1.13;0.68;;;;;;;;;;5064738;28;20601;-82
2021/11/01 12:39:09;;;;;;;0.32;0.32;;;;;;;;;;5063463;28;20111;-82
2021/11/01 12:41:52;;;;;;;0.00;0.00;;;;;;;;;;5045304;28;20029;-82
2021/11/01 12:57:52;;;;;;;4.05;0.65;;;;;;;;;;5063305;28;20077;-82
2021/11/01 13:00:18;;;;;;;9.47;0.37;;;;;;;;;;5047060;28;20028;-82
2021/11/01 13:02:46;;;;;;;0.00;0.00;;;;;;;;;;5046331;28;20325;-82
2021/11/01 13:05:16;;;;;;;0.10;0.10;;;;;;;;;;5062992;28;20278;-82
2021/11/01 13:18:21;;;;;;;0.00;0.00;;;;;;;;;;5022734;28;20034;-82
2021/11/01 13:20:52;;;;;;;0.10;0.10;;;;;;;;;;5022576;28;20029;-82
2021/11/01 13:23:18;;;;;;;0.00;0.00;;;;;;;;;;5022456;28;20590;-82
2021/11/01 13:36:38;;;;;;;0.17;0.17;;;;;;;;;;5021939;28;20363;-81
2021/11/01 13:39:07;;;;;;;0.85;0.35;;;;;;;;;;5022061;28;20025;-82
2021/11/01 13:41:34;;;;;;;0.15;0.15;;;;;;;;;;5022071;28;20041;-82
2021/11/01 13:44:13;;;;;;;0.63;0.45;;;;;;;;;;5005588;28;20073;-82
2021/11/01 13:47:03;;;;;;;0.57;0.57;;;;;;;;;;5022322;28;20037;-81
2021/11/01 13:49:33;;;;;;;0.20;0.20;;;;;;;;;;5013311;28;20085;-81
2021/11/01 13:55:03;;;;;;;0.10;0.10;;;;;;;;;;5062553;28;20041;-82
2021/11/01 13:57:31;;;;;;;0.00;0.00;;;;;;;;;;5062464;28;20150;-81
2021/11/01 14:00:20;;;;;;;0.10;0.10;;;;;;;;;;5046149;28;20021;-82
2021/11/01 14:13:52;;;;;;;0.10;0.10;;;;;;;;;;5063770;28;20052;-81
2021/11/01 14:16:30;;;;;;;0.00;0.00;;;;;;;;;;5062297;28;20055;-82
2021/11/01 14:19:39;;;;;;;0.10;0.10;;;;;;;;;;5055624;28;20036;-82
2021/11/01 14:27:39;;;;;;;0.45;0.32;;;;;;;;;;5061083;28;20064;-82
2021/11/01 15:07:43;;;;;;;0.75;0.75;;;;;;;;;;5061164;28;20062;-83
2021/11/01 16:19:41;;;;;;;2.40;1.70;;;;;;;;;;5022071;28;20467;-80
2021/11/01 16:22:10;;;;;;;0.65;0.45;;;;;;;;;;5019941;28;20038;-81
2021/11/01 16:24:37;;;;;;;0.10;0.10;;;;;;;;;;5037934;28;20047;-81
2021/11/01 16:27:04;;;;;;;0.65;0.17;;;;;;;;;;5006823;28;20037;-81
2021/11/01 16:32:17;;;;;;;0.10;0.10;;;;;;;;;;5021619;28;19940;-81
2021/11/01 16:34:46;;;;;;;0.20;0.20;;;;;;;;;;5023571;28;20041;-82
2021/11/01 16:37:22;;;;;;;0.10;0.10;;;;;;;;;;5021683;28;20042;-81
2021/11/01 16:39:48;;;;;;;0.10;0.10;;;;;;;;;;5021741;28;20080;-82
2021/11/01 16:42:26;;;;;;;1.45;0.57;;;;;;;;;;5037995;28;20450;-82
2021/11/01 16:44:52;;;;;;;0.10;0.10;;;;;;;;;;5021579;28;20517;-82
2021/11/01 16:47:20;;;;;;;0.00;0.00;;;;;;;;;;5021390;28;20152;-82
2021/11/01 16:49:49;;;;;;;0.10;0.10;;;;;;;;;;5006718;28;20026;-82
2021/11/01 16:52:16;;;;;;;0.10;0.10;;;;;;;;;;5004054;28;20453;-82
2021/11/01 16:54:49;;;;;;;0.20;0.20;;;;;;;;;;5002560;28;20041;-82
2021/11/01 16:57:28;;;;;;;0.10;0.10;;;;;;;;;;5055030;28;20060;-82
2021/11/01 17:00:24;;;;;;;0.70;0.70;;;;;;;;;;5063191;28;20786;-82
2021/11/01 17:26:43;;;;;;;0.10;0.10;;;;;;;;;;5063315;28;20033;-82
2021/11/01 17:35:12;;;;;;;2.60;0.85;;;;;;;;;;5064837;28;20044;-82
2021/11/01 18:41:25;;;;;;;1.45;0.80;;;;;;;;;;4975317;28;20038;-87
2021/11/01 18:51:55;;;;;;;1.83;1.23;;;;;;;;;;4990597;28;20041;-85
2021/11/01 18:54:23;;;;;;;0.68;0.68;;;;;;;;;;5061856;28;20317;-84
2021/11/01 18:56:50;;;;;;;1.30;1.20;;;;;;;;;;5063275;28;20097;-87
2021/11/01 18:59:17;;;;;;;0.30;0.30;;;;;;;;;;5057314;28;20067;-84
2021/11/01 19:01:44;;;;;;;0.10;0.10;;;;;;;;;;5057643;28;20029;-85
2021/11/01 19:04:15;;;;;;;0.93;0.63;;;;;;;;;;5053294;28;20037;-83
2021/11/01 20:13:04;;;;;;;;;;;;;;;;;;;;;
2021/11/01 21:27:13;;;;;;;0.55;0.55;;;;;;;;;;4987622;28;20590;-84
2021/11/01 21:29:39;;;;;;;1.08;0.90;;;;;;;;;;4969917;28;20038;-83
2021/11/01 21:32:06;;;;;;;0.10;0.10;;;;;;;;;;4980304;28;20045;-83
2021/11/01 21:34:37;;;;;;;0.20;0.20;;;;;;;;;;4988102;28;20046;-84
2021/11/01 21:37:04;;;;;;;0.55;0.55;;;;;;;;;;4990847;28;20105;-83
2021/11/01 21:39:30;;;;;;;0.10;0.10;;;;;;;;;;4968572;28;20042;-83
2021/11/01 21:41:57;;;;;;;0.10;0.10;;;;;;;;;;4983232;28;20062;-83
2021/11/01 21:44:23;;;;;;;0.10;0.10;;;;;;;;;;4971912;28;20049;-83
2021/11/01 21:46:49;;;;;;;0.20;0.20;;;;;;;;;;4991331;28;20037;-84
2021/11/01 21:49:15;;;;;;;0.17;0.17;;;;;;;;;;4990621;28;20376;-84
2021/11/01 21:51:43;;;;;;;2.90;0.40;;;;;;;;;;4975957;28;20428;-83
2021/11/01 21:54:30;;;;;;;0.47;0.47;;;;;;;;;;4990008;28;20044;-83
2021/11/01 21:57:10;;;;;;;0.10;0.10;;;;;;;;;;4981828;28;20547;-83
2021/11/01 22:19:04;;;;;;;0.10;0.10;;;;;;;;;;5059543;28;20156;-81
2021/11/01 22:21:33;;;;;;;0.55;0.55;;;;;;;;;;5060183;28;20124;-82
2021/11/01 22:43:08;;;;;;;0.10;0.10;;;;;;;;;;5006098;28;20034;-80
2021/11/01 22:45:52;;;;;;;0.52;0.30;;;;;;;;;;5008960;28;20180;-80
2021/11/01 22:48:36;;;;;;;0.20;0.20;;;;;;;;;;5005853;28;20030;-84
2021/11/01 22:56:49;;;;;;;0.10;0.10;;;;;;;;;;4998178;28;20193;-82
2021/11/01 22:59:16;;;;;;;0.22;0.22;;;;;;;;;;4993163;28;20065;-82
2021/11/01 23:01:44;;;;;;;0.20;0.20;;;;;;;;;;4998653;28;20501;-83
2021/11/01 23:31:38;;;;;;;0.10;0.10;;;;;;;;;;5066605;28;20079;-87
2021/11/01 23:34:06;;;;;;;0.30;0.30;;;;;;;;;;5045860;28;20585;-88
2021/11/01 23:36:33;;;;;;;0.10;0.10;;;;;;;;;;5058169;28;20165;-87
2021/11/01 23:38:59;;;;;;;0.10;0.10;;;;;;;;;;5065200;28;20090;-87
2021/11/01 23:41:26;;;;;;;0.10;0.10;;;;;;;;;;5029479;28;20033;-85
2021/11/01 23:43:53;;;;;;;0.10;0.10;;;;;;;;;;5047596;28;20043;-85
2021/11/01 23:46:19;;;;;;;0.10;0.10;;;;;;;;;;5063525;28;20028;-85
2021/11/01 23:48:45;;;;;;;0.10;0.10;;;;;;;;;;5043735;28;20032;-86
2021/11/01 23:51:14;;;;;;;0.10;0.10;;;;;;;;;;5063548;28;20032;-85
2021/11/01 23:53:49;;;;;;;0.10;0.10;;;;;;;;;;5063915;28;20431;-84
2021/11/01 23:56:16;;;;;;;1.85;1.45;;;;;;;;;;5045245;28;20809;-84
2021/11/01 23:58:44;;;;;;;0.10;0.10;;;;;;;;;;5065495;28;20936;-85
